Aeroporto :
LOGIN :

Iscrizione | Disclaimer

   EN    FR    IT 

 










Sommario :    VFR   VFR Marginale   IFR   IFR Intensivo   IFR Molto Intensivo
Visibilità : 
Base nubi : 
>= 8 km
>= 3000ft
5 / 8 km
1000 / 3000 ft
1500m / 5 km
500 / 1000 ft
800 / 1500m
200 / 500 ft
< 800m
< 200 ft
Simboli :   Temporali  Nebbia  Neve Forte  Precipitazioni Forti  Vento > 20 kt
SIGMETs :   Varie  Temporali  Ghiacco  Turbolenza  Onda orograficha  Ceneri Vulcaniche






- Altitudine del aeroporto : 388 ft
- Codice IATA : QYR


LFQB - Troyes Barberey

ULTIMO METAR :
  • 270530Z AUTO 17004KT CAVOK 05/04 Q1017

METARs OBSOLETI :
  • 270500Z AUTO 17004KT 9000 4100 NSC 05/04 Q1018
  • 270430Z AUTO 15002KT 8000 NSC 05/04 Q1018
  • 270400Z AUTO 17003KT 9000 NSC 04/04 Q1018
  • 270330Z AUTO 17003KT 8000 NSC 04/03 Q1018
  • 270300Z AUTO 17004KT 5000 BR NSC 04/03 Q1018
  • 270230Z AUTO VRB02KT 4500 BR NSC 03/03 Q1018

TAF N/A



MetMap, La meteo Aeronautica in un colpo d'occhio ! - Copyright ORBIFLY Dicembre 2007 - Disclaimer

ORBIFLY MET'MAP TEAM :

Programmazione e sviluppo : Alexandra Zaïnal
Concezione : Baudouin d'Aumeries
Aiuto per la programmazione : Marc-Olivier Méhu
Supporto tecnico e logistico : Manuel Goepfert
Aiuto per la traduzione : Arnaldo La Scala

Contatto : metmap@orbifly.com




FONTI E CREDITI :

   NOAA